SWA1129 KLAX-KDEN
Flight info
| Callsign | SWA1129 |
|---|---|
| Flight time | N/A |
| Altitude | 34000 |
| Route | ATURO2A ATURO UT134 ZCL UT10 LOKRO/N0446F360 UT10 PPE J93 ASUTA DCT AMMOR OLAAA2 |
| Aircraft | B738/M-SDE2E3FGHIRWXY/LB1 |
Departure
| Time | 2026-04-22 00:32 |
|---|---|
| Airport | Los Angeles International Airport (KLAX) |
Arrival
| Time | N/A |
|---|---|
| Airport | Denver International Airport (KDEN) |
| Time | Latitude | Longitude | Altitude | Speed | Heading |
|---|---|---|---|---|---|
| 2026-04-22 00:10 | 33.94615 | -118.40968 | 125 ft | 0 kts | 295° |
| 2026-04-22 00:20 | 33.94610 | -118.40956 | 119 ft | 2 kts | 295° |
| 2026-04-22 00:21 | 33.94603 | -118.40939 | 119 ft | 2 kts | 299° |
| 2026-04-22 00:21 | 33.94595 | -118.40922 | 119 ft | 2 kts | 299° |
| 2026-04-22 00:21 | 33.94585 | -118.40906 | 122 ft | 2 kts | 328° |
| 2026-04-22 00:21 | 33.94571 | -118.40897 | 121 ft | 2 kts | 344° |
| 2026-04-22 00:22 | 33.94566 | -118.40896 | 121 ft | 0 kts | 356° |
| 2026-04-22 00:25 | 33.94567 | -118.40896 | 123 ft | 2 kts | 356° |
| 2026-04-22 00:25 | 33.94607 | -118.40900 | 123 ft | 7 kts | 354° |
| 2026-04-22 00:25 | 33.94652 | -118.40907 | 122 ft | 7 kts | 354° |
| 2026-04-22 00:26 | 33.94697 | -118.40912 | 123 ft | 6 kts | 355° |
| 2026-04-22 00:26 | 33.94741 | -118.40911 | 122 ft | 6 kts | 17° |
| 2026-04-22 00:26 | 33.94780 | -118.40889 | 123 ft | 6 kts | 24° |
| 2026-04-22 00:26 | 33.94790 | -118.40887 | 123 ft | 1 kts | 8° |
| 2026-04-22 00:27 | 33.94797 | -118.40887 | 120 ft | 2 kts | 5° |
| 2026-04-22 00:27 | 33.94816 | -118.40880 | 122 ft | 4 kts | 23° |
| 2026-04-22 00:27 | 33.94841 | -118.40827 | 125 ft | 10 kts | 83° |
| 2026-04-22 00:27 | 33.94853 | -118.40713 | 125 ft | 17 kts | 83° |
| 2026-04-22 00:28 | 33.94869 | -118.40546 | 125 ft | 21 kts | 83° |
| 2026-04-22 00:28 | 33.94888 | -118.40372 | 125 ft | 21 kts | 83° |
| 2026-04-22 00:28 | 33.94906 | -118.40203 | 120 ft | 20 kts | 83° |
| 2026-04-22 00:28 | 33.94918 | -118.40080 | 123 ft | 14 kts | 82° |
| 2026-04-22 00:29 | 33.94930 | -118.39971 | 125 ft | 13 kts | 77° |
| 2026-04-22 00:29 | 33.94953 | -118.39928 | 124 ft | 0 kts | 39° |
| 2026-04-22 00:30 | 33.94959 | -118.39922 | 121 ft | 5 kts | 38° |
| 2026-04-22 00:30 | 33.95024 | -118.39918 | 123 ft | 12 kts | 351° |
| 2026-04-22 00:30 | 33.95046 | -118.39988 | 121 ft | 10 kts | 252° |
| 2026-04-22 00:31 | 33.95030 | -118.40070 | 125 ft | 10 kts | 263° |
| 2026-04-22 00:31 | 33.95011 | -118.40263 | 125 ft | 43 kts | 263° |
| 2026-04-22 00:31 | 33.94943 | -118.40940 | 125 ft | 119 kts | 263° |
| 2026-04-22 00:31 | 33.94821 | -118.42215 | 197 ft | 178 kts | 263° |
| 2026-04-22 00:32 | 33.94668 | -118.43739 | 907 ft | 188 kts | 263° |
| 2026-04-22 00:32 | 33.94509 | -118.45250 | 2122 ft | 173 kts | 262° |
| 2026-04-22 00:32 | 33.94368 | -118.46626 | 3208 ft | 158 kts | 262° |
| 2026-04-22 00:32 | 33.94237 | -118.47882 | 4072 ft | 145 kts | 260° |
| 2026-04-22 00:33 | 33.94082 | -118.49126 | 4499 ft | 161 kts | 261° |
| 2026-04-22 00:33 | 33.93900 | -118.50551 | 4847 ft | 180 kts | 261° |
| 2026-04-22 00:33 | 33.93385 | -118.51939 | 5236 ft | 192 kts | 225° |
| 2026-04-22 00:33 | 33.92176 | -118.52695 | 5642 ft | 204 kts | 194° |
| 2026-04-22 00:34 | 33.90736 | -118.52571 | 6071 ft | 219 kts | 163° |
| 2026-04-22 00:34 | 33.89488 | -118.51453 | 6527 ft | 234 kts | 129° |
| 2026-04-22 00:34 | 33.88940 | -118.49590 | 6979 ft | 246 kts | 93° |
| 2026-04-22 00:34 | 33.89358 | -118.47571 | 7428 ft | 254 kts | 69° |
| 2026-04-22 00:35 | 33.89680 | -118.45459 | 7564 ft | 262 kts | 97° |
| 2026-04-22 00:35 | 33.89167 | -118.43429 | 7382 ft | 254 kts | 127° |
| 2026-04-22 00:35 | 33.87945 | -118.42026 | 7205 ft | 237 kts | 159° |
| 2026-04-22 00:35 | 33.86421 | -118.41603 | 7394 ft | 221 kts | 181° |
| 2026-04-22 00:36 | 33.84870 | -118.41488 | 7745 ft | 226 kts | 181° |
| 2026-04-22 00:36 | 33.83296 | -118.41375 | 7992 ft | 227 kts | 181° |
| 2026-04-22 00:36 | 33.81740 | -118.41260 | 8377 ft | 221 kts | 182° |
| 2026-04-22 00:36 | 33.80192 | -118.41135 | 8891 ft | 225 kts | 182° |
| 2026-04-22 00:37 | 33.78609 | -118.40997 | 9380 ft | 232 kts | 182° |
| 2026-04-22 00:37 | 33.76989 | -118.40848 | 9917 ft | 237 kts | 181° |
| 2026-04-22 00:37 | 33.75281 | -118.40695 | 9987 ft | 265 kts | 181° |
| 2026-04-22 00:37 | 33.73342 | -118.40540 | 10031 ft | 294 kts | 181° |
| 2026-04-22 00:38 | 33.71213 | -118.40386 | 10019 ft | 313 kts | 181° |
| 2026-04-22 00:38 | 33.69063 | -118.40228 | 9982 ft | 304 kts | 181° |
| 2026-04-22 00:38 | 33.67006 | -118.40066 | 9981 ft | 290 kts | 181° |
| 2026-04-22 00:38 | 33.65039 | -118.39896 | 9975 ft | 277 kts | 181° |
| 2026-04-22 00:39 | 33.63141 | -118.39722 | 9983 ft | 273 kts | 181° |
| 2026-04-22 00:39 | 33.61239 | -118.39547 | 9998 ft | 275 kts | 181° |
| 2026-04-22 00:39 | 33.59326 | -118.39370 | 10025 ft | 276 kts | 181° |
| 2026-04-22 00:39 | 33.57406 | -118.39194 | 10027 ft | 277 kts | 181° |
| 2026-04-22 00:40 | 33.56359 | -118.39098 | 10036 ft | 277 kts | 181° |